sensor_id;sensor_type;location;lat;lon;timestamp;P1;durP1;ratioP1;P2;durP2;ratioP2
15635;SDS011;7917;50.818;6.972;2022-07-29T00:01:02;4.05;;;2.05;;
15635;SDS011;7917;50.818;6.972;2022-07-29T00:03:30;4.65;;;2.38;;
15635;SDS011;7917;50.818;6.972;2022-07-29T00:05:57;7.18;;;2.00;;
15635;SDS011;7917;50.818;6.972;2022-07-29T00:08:24;7.20;;;2.90;;
15635;SDS011;7917;50.818;6.972;2022-07-29T00:10:53;5.38;;;2.05;;
15635;SDS011;7917;50.818;6.972;2022-07-29T00:13:20;4.65;;;1.85;;
15635;SDS011;7917;50.818;6.972;2022-07-29T00:15:47;5.90;;;2.08;;
15635;SDS011;7917;50.818;6.972;2022-07-29T00:18:15;6.03;;;1.80;;
15635;SDS011;7917;50.818;6.972;2022-07-29T00:20:42;7.70;;;2.17;;
15635;SDS011;7917;50.818;6.972;2022-07-29T00:23:09;5.28;;;1.90;;
15635;SDS011;7917;50.818;6.972;2022-07-29T00:25:36;2.60;;;1.95;;
15635;SDS011;7917;50.818;6.972;2022-07-29T00:28:05;3.80;;;1.70;;
15635;SDS011;7917;50.818;6.972;2022-07-29T00:30:32;10.23;;;2.95;;
15635;SDS011;7917;50.818;6.972;2022-07-29T00:32:59;4.55;;;1.85;;
15635;SDS011;7917;50.818;6.972;2022-07-29T00:35:27;4.07;;;2.10;;
15635;SDS011;7917;50.818;6.972;2022-07-29T00:38:12;3.10;;;1.77;;
15635;SDS011;7917;50.818;6.972;2022-07-29T00:40:40;8.48;;;2.22;;
15635;SDS011;7917;50.818;6.972;2022-07-29T00:43:09;7.70;;;1.92;;
15635;SDS011;7917;50.818;6.972;2022-07-29T00:45:36;3.83;;;2.22;;
15635;SDS011;7917;50.818;6.972;2022-07-29T00:48:04;3.65;;;2.72;;
15635;SDS011;7917;50.818;6.972;2022-07-29T00:50:34;3.35;;;2.13;;
15635;SDS011;7917;50.818;6.972;2022-07-29T00:53:02;5.32;;;2.08;;
15635;SDS011;7917;50.818;6.972;2022-07-29T00:55:30;2.30;;;1.70;;
15635;SDS011;7917;50.818;6.972;2022-07-29T00:57:58;4.75;;;1.67;;
15635;SDS011;7917;50.818;6.972;2022-07-29T01:00:27;3.90;;;2.13;;
15635;SDS011;7917;50.818;6.972;2022-07-29T01:02:55;5.55;;;2.70;;
15635;SDS011;7917;50.818;6.972;2022-07-29T01:05:23;4.22;;;2.58;;
15635;SDS011;7917;50.818;6.972;2022-07-29T01:07:53;9.48;;;2.15;;
15635;SDS011;7917;50.818;6.972;2022-07-29T01:10:21;7.10;;;2.10;;
15635;SDS011;7917;50.818;6.972;2022-07-29T01:12:51;3.13;;;1.70;;
15635;SDS011;7917;50.818;6.972;2022-07-29T01:15:20;5.20;;;2.20;;
15635;SDS011;7917;50.818;6.972;2022-07-29T01:17:51;2.85;;;1.70;;
15635;SDS011;7917;50.818;6.972;2022-07-29T01:20:24;3.00;;;1.75;;
15635;SDS011;7917;50.818;6.972;2022-07-29T01:26:17;4.07;;;2.00;;
15635;SDS011;7917;50.818;6.972;2022-07-29T01:29:01;3.63;;;1.88;;
15635;SDS011;7917;50.818;6.972;2022-07-29T01:31:33;3.05;;;2.05;;
15635;SDS011;7917;50.818;6.972;2022-07-29T01:34:08;5.90;;;2.05;;
15635;SDS011;7917;50.818;6.972;2022-07-29T01:36:44;6.68;;;2.05;;
15635;SDS011;7917;50.818;6.972;2022-07-29T01:39:16;6.75;;;2.20;;
15635;SDS011;7917;50.818;6.972;2022-07-29T01:41:50;6.15;;;2.63;;
15635;SDS011;7917;50.818;6.972;2022-07-29T01:44:26;3.88;;;2.10;;
15635;SDS011;7917;50.818;6.972;2022-07-29T01:46:58;4.85;;;2.47;;
15635;SDS011;7917;50.818;6.972;2022-07-29T01:49:31;4.32;;;2.40;;
15635;SDS011;7917;50.818;6.972;2022-07-29T01:52:03;6.03;;;2.33;;
15635;SDS011;7917;50.818;6.972;2022-07-29T01:54:37;2.95;;;2.10;;
15635;SDS011;7917;50.818;6.972;2022-07-29T01:57:08;4.60;;;1.80;;
15635;SDS011;7917;50.818;6.972;2022-07-29T01:59:39;4.93;;;2.25;;
15635;SDS011;7917;50.818;6.972;2022-07-29T02:02:08;3.88;;;2.08;;
15635;SDS011;7917;50.818;6.972;2022-07-29T02:04:37;5.32;;;2.40;;
15635;SDS011;7917;50.818;6.972;2022-07-29T02:07:07;5.15;;;2.05;;
15635;SDS011;7917;50.818;6.972;2022-07-29T02:09:39;6.80;;;2.50;;
15635;SDS011;7917;50.818;6.972;2022-07-29T02:12:08;5.40;;;2.47;;
15635;SDS011;7917;50.818;6.972;2022-07-29T02:14:39;3.90;;;2.35;;
15635;SDS011;7917;50.818;6.972;2022-07-29T02:17:10;5.07;;;2.80;;
15635;SDS011;7917;50.818;6.972;2022-07-29T02:19:38;10.68;;;2.50;;
15635;SDS011;7917;50.818;6.972;2022-07-29T02:22:09;5.28;;;2.47;;
15635;SDS011;7917;50.818;6.972;2022-07-29T02:24:38;6.85;;;2.22;;
15635;SDS011;7917;50.818;6.972;2022-07-29T02:27:07;3.80;;;2.20;;
15635;SDS011;7917;50.818;6.972;2022-07-29T02:29:35;5.80;;;2.50;;
15635;SDS011;7917;50.818;6.972;2022-07-29T02:32:05;6.40;;;2.35;;
15635;SDS011;7917;50.818;6.972;2022-07-29T02:34:35;4.75;;;2.47;;
15635;SDS011;7917;50.818;6.972;2022-07-29T02:37:05;5.63;;;2.20;;
15635;SDS011;7917;50.818;6.972;2022-07-29T02:39:32;7.65;;;2.88;;
15635;SDS011;7917;50.818;6.972;2022-07-29T02:42:02;5.70;;;2.45;;
15635;SDS011;7917;50.818;6.972;2022-07-29T02:44:32;7.10;;;2.20;;
15635;SDS011;7917;50.818;6.972;2022-07-29T02:47:04;4.82;;;2.33;;
15635;SDS011;7917;50.818;6.972;2022-07-29T02:49:37;4.63;;;2.70;;
15635;SDS011;7917;50.818;6.972;2022-07-29T02:52:07;5.72;;;3.03;;
15635;SDS011;7917;50.818;6.972;2022-07-29T02:54:38;4.05;;;2.50;;
15635;SDS011;7917;50.818;6.972;2022-07-29T02:57:10;7.93;;;2.92;;
15635;SDS011;7917;50.818;6.972;2022-07-29T02:59:42;6.30;;;3.40;;
15635;SDS011;7917;50.818;6.972;2022-07-29T03:02:15;8.98;;;2.85;;
15635;SDS011;7917;50.818;6.972;2022-07-29T03:04:43;4.75;;;2.63;;
15635;SDS011;7917;50.818;6.972;2022-07-29T03:07:18;5.22;;;2.95;;
15635;SDS011;7917;50.818;6.972;2022-07-29T03:10:07;4.88;;;2.78;;
15635;SDS011;7917;50.818;6.972;2022-07-29T03:12:39;8.63;;;2.83;;
15635;SDS011;7917;50.818;6.972;2022-07-29T03:15:09;5.90;;;2.97;;
15635;SDS011;7917;50.818;6.972;2022-07-29T03:17:40;5.78;;;3.55;;
15635;SDS011;7917;50.818;6.972;2022-07-29T03:20:10;6.05;;;2.95;;
15635;SDS011;7917;50.818;6.972;2022-07-29T03:22:54;5.93;;;3.10;;
15635;SDS011;7917;50.818;6.972;2022-07-29T03:25:22;5.85;;;2.78;;
15635;SDS011;7917;50.818;6.972;2022-07-29T03:27:52;6.03;;;3.47;;
15635;SDS011;7917;50.818;6.972;2022-07-29T03:30:22;5.07;;;3.00;;
15635;SDS011;7917;50.818;6.972;2022-07-29T03:33:01;9.65;;;3.17;;
15635;SDS011;7917;50.818;6.972;2022-07-29T03:35:29;8.70;;;3.05;;
15635;SDS011;7917;50.818;6.972;2022-07-29T03:37:57;5.20;;;2.83;;
15635;SDS011;7917;50.818;6.972;2022-07-29T03:40:31;6.95;;;2.90;;
15635;SDS011;7917;50.818;6.972;2022-07-29T03:43:17;8.27;;;3.20;;
15635;SDS011;7917;50.818;6.972;2022-07-29T03:45:47;6.53;;;2.85;;
15635;SDS011;7917;50.818;6.972;2022-07-29T03:48:19;8.10;;;3.15;;
15635;SDS011;7917;50.818;6.972;2022-07-29T03:50:49;3.40;;;2.20;;
15635;SDS011;7917;50.818;6.972;2022-07-29T03:53:18;6.35;;;2.65;;
15635;SDS011;7917;50.818;6.972;2022-07-29T03:55:48;6.72;;;2.65;;
15635;SDS011;7917;50.818;6.972;2022-07-29T03:58:21;6.53;;;2.40;;
15635;SDS011;7917;50.818;6.972;2022-07-29T04:00:58;8.90;;;3.10;;
15635;SDS011;7917;50.818;6.972;2022-07-29T04:03:28;6.82;;;2.80;;
15635;SDS011;7917;50.818;6.972;2022-07-29T04:06:01;7.43;;;2.70;;
15635;SDS011;7917;50.818;6.972;2022-07-29T04:08:36;5.88;;;2.75;;
15635;SDS011;7917;50.818;6.972;2022-07-29T04:11:04;5.47;;;2.40;;
15635;SDS011;7917;50.818;6.972;2022-07-29T04:13:34;7.32;;;2.72;;
15635;SDS011;7917;50.818;6.972;2022-07-29T04:16:01;9.07;;;2.17;;
15635;SDS011;7917;50.818;6.972;2022-07-29T04:18:31;4.63;;;2.55;;
15635;SDS011;7917;50.818;6.972;2022-07-29T04:20:58;6.07;;;2.60;;
15635;SDS011;7917;50.818;6.972;2022-07-29T04:23:26;8.10;;;2.75;;
15635;SDS011;7917;50.818;6.972;2022-07-29T04:25:57;5.68;;;2.42;;
15635;SDS011;7917;50.818;6.972;2022-07-29T04:28:26;5.65;;;2.30;;
15635;SDS011;7917;50.818;6.972;2022-07-29T04:30:55;9.60;;;2.58;;
15635;SDS011;7917;50.818;6.972;2022-07-29T04:33:23;6.97;;;2.33;;
15635;SDS011;7917;50.818;6.972;2022-07-29T04:35:51;7.22;;;2.45;;
15635;SDS011;7917;50.818;6.972;2022-07-29T04:38:18;7.90;;;2.55;;
15635;SDS011;7917;50.818;6.972;2022-07-29T04:40:45;6.05;;;2.50;;
15635;SDS011;7917;50.818;6.972;2022-07-29T04:43:13;5.40;;;1.92;;
15635;SDS011;7917;50.818;6.972;2022-07-29T04:45:42;4.05;;;2.50;;
15635;SDS011;7917;50.818;6.972;2022-07-29T04:48:09;9.10;;;2.45;;
15635;SDS011;7917;50.818;6.972;2022-07-29T04:50:37;4.75;;;2.55;;
15635;SDS011;7917;50.818;6.972;2022-07-29T04:53:09;6.05;;;2.67;;
15635;SDS011;7917;50.818;6.972;2022-07-29T04:55:37;5.05;;;2.50;;
15635;SDS011;7917;50.818;6.972;2022-07-29T04:58:04;10.25;;;3.13;;
15635;SDS011;7917;50.818;6.972;2022-07-29T05:00:32;5.97;;;2.75;;
15635;SDS011;7917;50.818;6.972;2022-07-29T05:03:00;5.20;;;2.70;;
15635;SDS011;7917;50.818;6.972;2022-07-29T05:05:31;6.25;;;2.65;;
15635;SDS011;7917;50.818;6.972;2022-07-29T05:07:58;6.13;;;2.60;;
15635;SDS011;7917;50.818;6.972;2022-07-29T05:10:27;6.10;;;2.30;;
15635;SDS011;7917;50.818;6.972;2022-07-29T05:12:56;7.47;;;2.58;;
15635;SDS011;7917;50.818;6.972;2022-07-29T05:15:23;8.93;;;2.70;;
15635;SDS011;7917;50.818;6.972;2022-07-29T05:17:50;6.75;;;2.55;;
15635;SDS011;7917;50.818;6.972;2022-07-29T05:20:17;5.03;;;2.47;;
15635;SDS011;7917;50.818;6.972;2022-07-29T05:22:51;6.13;;;2.38;;
15635;SDS011;7917;50.818;6.972;2022-07-29T05:25:18;8.52;;;2.90;;
15635;SDS011;7917;50.818;6.972;2022-07-29T05:27:46;4.38;;;2.58;;
15635;SDS011;7917;50.818;6.972;2022-07-29T05:30:13;6.80;;;2.15;;
15635;SDS011;7917;50.818;6.972;2022-07-29T05:32:41;7.75;;;2.75;;
15635;SDS011;7917;50.818;6.972;2022-07-29T05:35:08;7.40;;;2.47;;
15635;SDS011;7917;50.818;6.972;2022-07-29T05:37:36;9.15;;;2.70;;
15635;SDS011;7917;50.818;6.972;2022-07-29T05:40:04;8.30;;;3.15;;
15635;SDS011;7917;50.818;6.972;2022-07-29T05:42:33;6.05;;;2.45;;
15635;SDS011;7917;50.818;6.972;2022-07-29T05:45:02;6.65;;;2.92;;
15635;SDS011;7917;50.818;6.972;2022-07-29T05:47:30;12.50;;;3.10;;
15635;SDS011;7917;50.818;6.972;2022-07-29T05:49:58;10.07;;;2.83;;
15635;SDS011;7917;50.818;6.972;2022-07-29T05:52:25;10.32;;;2.85;;
15635;SDS011;7917;50.818;6.972;2022-07-29T05:54:53;7.78;;;2.63;;
15635;SDS011;7917;50.818;6.972;2022-07-29T05:57:22;12.35;;;3.25;;
15635;SDS011;7917;50.818;6.972;2022-07-29T05:59:50;7.15;;;2.47;;
15635;SDS011;7917;50.818;6.972;2022-07-29T06:02:19;10.02;;;2.80;;
15635;SDS011;7917;50.818;6.972;2022-07-29T06:04:46;7.40;;;2.85;;
15635;SDS011;7917;50.818;6.972;2022-07-29T06:07:14;9.75;;;2.67;;
15635;SDS011;7917;50.818;6.972;2022-07-29T06:09:41;9.55;;;2.80;;
15635;SDS011;7917;50.818;6.972;2022-07-29T06:12:09;8.85;;;2.40;;
15635;SDS011;7917;50.818;6.972;2022-07-29T06:14:36;7.78;;;2.60;;
15635;SDS011;7917;50.818;6.972;2022-07-29T06:17:04;5.60;;;2.30;;
15635;SDS011;7917;50.818;6.972;2022-07-29T06:19:34;9.75;;;3.30;;
15635;SDS011;7917;50.818;6.972;2022-07-29T06:22:02;5.63;;;2.72;;
15635;SDS011;7917;50.818;6.972;2022-07-29T06:24:30;6.97;;;2.58;;
15635;SDS011;7917;50.818;6.972;2022-07-29T06:26:57;7.35;;;2.30;;
15635;SDS011;7917;50.818;6.972;2022-07-29T06:29:25;5.80;;;2.50;;
15635;SDS011;7917;50.818;6.972;2022-07-29T06:31:52;5.18;;;2.72;;
15635;SDS011;7917;50.818;6.972;2022-07-29T06:34:20;6.70;;;3.15;;
15635;SDS011;7917;50.818;6.972;2022-07-29T06:36:49;10.57;;;2.88;;
15635;SDS011;7917;50.818;6.972;2022-07-29T06:39:18;8.60;;;2.78;;
15635;SDS011;7917;50.818;6.972;2022-07-29T06:41:48;5.55;;;2.30;;
15635;SDS011;7917;50.818;6.972;2022-07-29T06:44:17;10.85;;;3.40;;
15635;SDS011;7917;50.818;6.972;2022-07-29T06:46:45;12.93;;;3.05;;
15635;SDS011;7917;50.818;6.972;2022-07-29T06:49:14;10.55;;;2.70;;
15635;SDS011;7917;50.818;6.972;2022-07-29T06:51:48;7.63;;;3.15;;
15635;SDS011;7917;50.818;6.972;2022-07-29T06:54:16;8.63;;;2.75;;
15635;SDS011;7917;50.818;6.972;2022-07-29T06:56:44;10.23;;;2.95;;
15635;SDS011;7917;50.818;6.972;2022-07-29T06:59:12;8.48;;;2.88;;
15635;SDS011;7917;50.818;6.972;2022-07-29T07:01:40;5.10;;;2.70;;
15635;SDS011;7917;50.818;6.972;2022-07-29T07:04:08;12.60;;;3.08;;
15635;SDS011;7917;50.818;6.972;2022-07-29T07:06:41;10.35;;;3.17;;
15635;SDS011;7917;50.818;6.972;2022-07-29T07:09:10;10.15;;;3.28;;
15635;SDS011;7917;50.818;6.972;2022-07-29T07:11:38;8.98;;;3.30;;
15635;SDS011;7917;50.818;6.972;2022-07-29T07:14:06;6.78;;;3.30;;
15635;SDS011;7917;50.818;6.972;2022-07-29T07:16:36;6.07;;;2.70;;
15635;SDS011;7917;50.818;6.972;2022-07-29T07:19:06;5.82;;;3.20;;
15635;SDS011;7917;50.818;6.972;2022-07-29T07:21:34;7.68;;;2.92;;
15635;SDS011;7917;50.818;6.972;2022-07-29T07:24:02;9.15;;;2.97;;
15635;SDS011;7917;50.818;6.972;2022-07-29T07:26:32;11.38;;;2.88;;
15635;SDS011;7917;50.818;6.972;2022-07-29T07:29:00;8.38;;;2.72;;
15635;SDS011;7917;50.818;6.972;2022-07-29T07:31:27;5.88;;;3.10;;
15635;SDS011;7917;50.818;6.972;2022-07-29T07:33:55;9.70;;;3.30;;
15635;SDS011;7917;50.818;6.972;2022-07-29T07:36:22;18.85;;;3.78;;
15635;SDS011;7917;50.818;6.972;2022-07-29T07:38:50;17.15;;;3.28;;
15635;SDS011;7917;50.818;6.972;2022-07-29T07:41:17;13.52;;;3.20;;
15635;SDS011;7917;50.818;6.972;2022-07-29T07:43:47;10.68;;;2.90;;
15635;SDS011;7917;50.818;6.972;2022-07-29T07:46:14;8.43;;;3.15;;
15635;SDS011;7917;50.818;6.972;2022-07-29T07:48:42;8.07;;;3.17;;
15635;SDS011;7917;50.818;6.972;2022-07-29T07:51:09;13.07;;;3.78;;
15635;SDS011;7917;50.818;6.972;2022-07-29T07:53:36;9.05;;;2.90;;
15635;SDS011;7917;50.818;6.972;2022-07-29T07:56:04;8.20;;;2.95;;
15635;SDS011;7917;50.818;6.972;2022-07-29T07:58:32;13.25;;;3.00;;
15635;SDS011;7917;50.818;6.972;2022-07-29T08:01:02;9.85;;;3.38;;
15635;SDS011;7917;50.818;6.972;2022-07-29T08:03:30;10.43;;;3.60;;
15635;SDS011;7917;50.818;6.972;2022-07-29T08:05:57;9.93;;;3.33;;
15635;SDS011;7917;50.818;6.972;2022-07-29T08:08:24;9.70;;;3.28;;
15635;SDS011;7917;50.818;6.972;2022-07-29T08:10:52;7.10;;;3.47;;
15635;SDS011;7917;50.818;6.972;2022-07-29T08:13:21;6.65;;;3.58;;
15635;SDS011;7917;50.818;6.972;2022-07-29T08:15:54;8.90;;;3.45;;
15635;SDS011;7917;50.818;6.972;2022-07-29T08:18:44;14.70;;;3.60;;
15635;SDS011;7917;50.818;6.972;2022-07-29T08:21:28;9.75;;;3.40;;
15635;SDS011;7917;50.818;6.972;2022-07-29T08:23:55;8.02;;;3.22;;
15635;SDS011;7917;50.818;6.972;2022-07-29T08:26:46;26.60;;;4.85;;
15635;SDS011;7917;50.818;6.972;2022-07-29T08:29:13;12.75;;;3.50;;
15635;SDS011;7917;50.818;6.972;2022-07-29T08:31:41;13.93;;;3.60;;
15635;SDS011;7917;50.818;6.972;2022-07-29T08:34:10;13.77;;;4.80;;
15635;SDS011;7917;50.818;6.972;2022-07-29T08:36:38;13.45;;;3.78;;
15635;SDS011;7917;50.818;6.972;2022-07-29T08:39:06;14.55;;;3.47;;
15635;SDS011;7917;50.818;6.972;2022-07-29T08:41:38;11.38;;;3.22;;
15635;SDS011;7917;50.818;6.972;2022-07-29T08:44:11;17.63;;;3.60;;
15635;SDS011;7917;50.818;6.972;2022-07-29T08:46:38;17.75;;;4.20;;
15635;SDS011;7917;50.818;6.972;2022-07-29T08:49:07;14.45;;;3.55;;
15635;SDS011;7917;50.818;6.972;2022-07-29T08:51:44;10.93;;;4.05;;
15635;SDS011;7917;50.818;6.972;2022-07-29T08:54:16;10.73;;;4.10;;
15635;SDS011;7917;50.818;6.972;2022-07-29T08:56:44;6.18;;;4.07;;
15635;SDS011;7917;50.818;6.972;2022-07-29T08:59:15;13.00;;;4.25;;
15635;SDS011;7917;50.818;6.972;2022-07-29T09:01:45;7.75;;;4.13;;
15635;SDS011;7917;50.818;6.972;2022-07-29T09:04:15;9.93;;;4.30;;
15635;SDS011;7917;50.818;6.972;2022-07-29T09:06:45;10.02;;;4.50;;
15635;SDS011;7917;50.818;6.972;2022-07-29T09:09:15;11.70;;;3.90;;
15635;SDS011;7917;50.818;6.972;2022-07-29T09:11:43;8.65;;;3.65;;
15635;SDS011;7917;50.818;6.972;2022-07-29T09:14:11;8.20;;;4.60;;
15635;SDS011;7917;50.818;6.972;2022-07-29T09:16:43;15.35;;;4.40;;
15635;SDS011;7917;50.818;6.972;2022-07-29T09:19:20;13.40;;;4.10;;
15635;SDS011;7917;50.818;6.972;2022-07-29T09:21:52;11.35;;;4.10;;
15635;SDS011;7917;50.818;6.972;2022-07-29T09:24:35;13.02;;;4.47;;
15635;SDS011;7917;50.818;6.972;2022-07-29T09:27:19;9.98;;;4.25;;
15635;SDS011;7917;50.818;6.972;2022-07-29T09:29:55;10.15;;;4.13;;
15635;SDS011;7917;50.818;6.972;2022-07-29T09:32:24;8.43;;;4.10;;
15635;SDS011;7917;50.818;6.972;2022-07-29T09:34:55;11.60;;;4.80;;
15635;SDS011;7917;50.818;6.972;2022-07-29T09:37:44;9.27;;;3.80;;
15635;SDS011;7917;50.818;6.972;2022-07-29T09:40:13;11.25;;;4.07;;
15635;SDS011;7917;50.818;6.972;2022-07-29T09:42:42;7.97;;;3.95;;
15635;SDS011;7917;50.818;6.972;2022-07-29T09:45:10;10.18;;;4.03;;
15635;SDS011;7917;50.818;6.972;2022-07-29T09:47:41;13.98;;;5.25;;
15635;SDS011;7917;50.818;6.972;2022-07-29T09:50:15;8.75;;;4.10;;
15635;SDS011;7917;50.818;6.972;2022-07-29T09:52:49;8.10;;;4.40;;
15635;SDS011;7917;50.818;6.972;2022-07-29T09:55:21;10.43;;;4.60;;
15635;SDS011;7917;50.818;6.972;2022-07-29T09:57:49;11.40;;;4.35;;
15635;SDS011;7917;50.818;6.972;2022-07-29T10:00:17;9.65;;;4.60;;
15635;SDS011;7917;50.818;6.972;2022-07-29T10:02:48;8.18;;;3.65;;
15635;SDS011;7917;50.818;6.972;2022-07-29T10:05:18;9.90;;;4.18;;
15635;SDS011;7917;50.818;6.972;2022-07-29T10:07:47;9.00;;;3.85;;
15635;SDS011;7917;50.818;6.972;2022-07-29T10:10:19;13.85;;;3.70;;
15635;SDS011;7917;50.818;6.972;2022-07-29T10:12:48;10.40;;;3.95;;
15635;SDS011;7917;50.818;6.972;2022-07-29T10:15:17;8.02;;;3.63;;
15635;SDS011;7917;50.818;6.972;2022-07-29T10:17:45;10.90;;;3.85;;
15635;SDS011;7917;50.818;6.972;2022-07-29T10:20:16;12.07;;;3.95;;
15635;SDS011;7917;50.818;6.972;2022-07-29T10:22:44;11.48;;;4.70;;
15635;SDS011;7917;50.818;6.972;2022-07-29T10:25:13;14.52;;;4.82;;
15635;SDS011;7917;50.818;6.972;2022-07-29T10:27:41;11.38;;;4.78;;
15635;SDS011;7917;50.818;6.972;2022-07-29T10:30:10;13.68;;;4.47;;
15635;SDS011;7917;50.818;6.972;2022-07-29T10:32:40;11.05;;;4.80;;
15635;SDS011;7917;50.818;6.972;2022-07-29T10:35:30;9.45;;;3.80;;
15635;SDS011;7917;50.818;6.972;2022-07-29T10:38:14;7.00;;;3.00;;
15635;SDS011;7917;50.818;6.972;2022-07-29T10:41:00;7.68;;;3.20;;
15635;SDS011;7917;50.818;6.972;2022-07-29T10:43:57;6.65;;;3.08;;
15635;SDS011;7917;50.818;6.972;2022-07-29T10:46:27;9.65;;;2.88;;
15635;SDS011;7917;50.818;6.972;2022-07-29T10:49:05;7.85;;;2.58;;
15635;SDS011;7917;50.818;6.972;2022-07-29T10:54:37;4.68;;;1.95;;
15635;SDS011;7917;50.818;6.972;2022-07-29T10:57:16;6.10;;;2.45;;
15635;SDS011;7917;50.818;6.972;2022-07-29T10:59:47;7.93;;;2.33;;
15635;SDS011;7917;50.818;6.972;2022-07-29T11:05:09;4.35;;;2.10;;
15635;SDS011;7917;50.818;6.972;2022-07-29T11:07:39;3.90;;;2.22;;
15635;SDS011;7917;50.818;6.972;2022-07-29T11:10:27;4.53;;;2.00;;
15635;SDS011;7917;50.818;6.972;2022-07-29T11:12:55;9.68;;;2.40;;
15635;SDS011;7917;50.818;6.972;2022-07-29T11:15:23;5.65;;;2.15;;
15635;SDS011;7917;50.818;6.972;2022-07-29T11:18:03;5.93;;;1.85;;
15635;SDS011;7917;50.818;6.972;2022-07-29T11:20:36;6.13;;;2.00;;
15635;SDS011;7917;50.818;6.972;2022-07-29T11:23:19;4.70;;;2.20;;
15635;SDS011;7917;50.818;6.972;2022-07-29T11:28:51;3.70;;;1.95;;
15635;SDS011;7917;50.818;6.972;2022-07-29T11:31:31;8.75;;;2.67;;
15635;SDS011;7917;50.818;6.972;2022-07-29T11:34:16;7.20;;;2.75;;
15635;SDS011;7917;50.818;6.972;2022-07-29T11:39:46;7.65;;;2.40;;
15635;SDS011;7917;50.818;6.972;2022-07-29T11:42:38;6.63;;;2.15;;
15635;SDS011;7917;50.818;6.972;2022-07-29T11:45:24;7.10;;;2.35;;
15635;SDS011;7917;50.818;6.972;2022-07-29T11:47:58;6.18;;;2.10;;
15635;SDS011;7917;50.818;6.972;2022-07-29T11:50:28;6.25;;;2.35;;
15635;SDS011;7917;50.818;6.972;2022-07-29T11:52:58;5.30;;;2.20;;
15635;SDS011;7917;50.818;6.972;2022-07-29T11:55:29;5.18;;;2.00;;
15635;SDS011;7917;50.818;6.972;2022-07-29T11:58:01;3.05;;;2.22;;
15635;SDS011;7917;50.818;6.972;2022-07-29T12:00:45;6.85;;;2.13;;
15635;SDS011;7917;50.818;6.972;2022-07-29T12:03:23;4.30;;;2.17;;
15635;SDS011;7917;50.818;6.972;2022-07-29T12:05:51;3.67;;;2.10;;
15635;SDS011;7917;50.818;6.972;2022-07-29T12:08:20;5.75;;;2.45;;
15635;SDS011;7917;50.818;6.972;2022-07-29T12:10:52;3.95;;;1.90;;
15635;SDS011;7917;50.818;6.972;2022-07-29T12:13:20;5.32;;;2.25;;
15635;SDS011;7917;50.818;6.972;2022-07-29T12:15:52;4.15;;;2.20;;
15635;SDS011;7917;50.818;6.972;2022-07-29T12:18:21;3.33;;;2.10;;
15635;SDS011;7917;50.818;6.972;2022-07-29T12:20:49;5.63;;;2.35;;
15635;SDS011;7917;50.818;6.972;2022-07-29T12:23:24;9.25;;;3.15;;
15635;SDS011;7917;50.818;6.972;2022-07-29T12:25:52;7.65;;;2.65;;
15635;SDS011;7917;50.818;6.972;2022-07-29T12:28:20;3.83;;;1.92;;
15635;SDS011;7917;50.818;6.972;2022-07-29T12:30:48;5.82;;;2.28;;
15635;SDS011;7917;50.818;6.972;2022-07-29T12:33:20;4.40;;;2.50;;
15635;SDS011;7917;50.818;6.972;2022-07-29T12:35:52;5.32;;;2.05;;
15635;SDS011;7917;50.818;6.972;2022-07-29T12:38:21;3.03;;;2.20;;
15635;SDS011;7917;50.818;6.972;2022-07-29T12:40:49;6.28;;;2.50;;
15635;SDS011;7917;50.818;6.972;2022-07-29T12:43:19;7.03;;;2.35;;
15635;SDS011;7917;50.818;6.972;2022-07-29T12:45:48;4.03;;;2.00;;
15635;SDS011;7917;50.818;6.972;2022-07-29T12:48:16;5.22;;;2.30;;
15635;SDS011;7917;50.818;6.972;2022-07-29T12:50:54;5.60;;;2.35;;
15635;SDS011;7917;50.818;6.972;2022-07-29T12:53:23;3.83;;;2.58;;
15635;SDS011;7917;50.818;6.972;2022-07-29T12:55:52;5.25;;;2.63;;
15635;SDS011;7917;50.818;6.972;2022-07-29T12:58:33;5.25;;;2.63;;
15635;SDS011;7917;50.818;6.972;2022-07-29T13:01:06;3.67;;;2.33;;
15635;SDS011;7917;50.818;6.972;2022-07-29T13:03:43;7.13;;;2.28;;
15635;SDS011;7917;50.818;6.972;2022-07-29T13:06:31;4.03;;;2.15;;
15635;SDS011;7917;50.818;6.972;2022-07-29T13:09:08;6.80;;;2.58;;
15635;SDS011;7917;50.818;6.972;2022-07-29T13:11:37;5.57;;;2.33;;
15635;SDS011;7917;50.818;6.972;2022-07-29T13:14:09;2.95;;;2.13;;
15635;SDS011;7917;50.818;6.972;2022-07-29T13:19:33;5.43;;;2.33;;
15635;SDS011;7917;50.818;6.972;2022-07-29T13:22:05;4.88;;;1.98;;
15635;SDS011;7917;50.818;6.972;2022-07-29T13:24:33;4.53;;;1.98;;
15635;SDS011;7917;50.818;6.972;2022-07-29T13:27:13;7.43;;;2.13;;
15635;SDS011;7917;50.818;6.972;2022-07-29T13:29:42;7.53;;;2.45;;
15635;SDS011;7917;50.818;6.972;2022-07-29T13:32:10;2.95;;;2.13;;
15635;SDS011;7917;50.818;6.972;2022-07-29T13:34:38;5.45;;;2.35;;
15635;SDS011;7917;50.818;6.972;2022-07-29T13:37:06;7.32;;;2.40;;
15635;SDS011;7917;50.818;6.972;2022-07-29T13:39:33;6.03;;;2.25;;
15635;SDS011;7917;50.818;6.972;2022-07-29T13:42:02;3.13;;;2.20;;
15635;SDS011;7917;50.818;6.972;2022-07-29T13:44:29;3.45;;;1.98;;
15635;SDS011;7917;50.818;6.972;2022-07-29T13:46:58;5.82;;;2.10;;
15635;SDS011;7917;50.818;6.972;2022-07-29T13:49:25;5.60;;;1.90;;
15635;SDS011;7917;50.818;6.972;2022-07-29T13:51:54;5.65;;;2.08;;
15635;SDS011;7917;50.818;6.972;2022-07-29T13:54:21;3.53;;;1.83;;
15635;SDS011;7917;50.818;6.972;2022-07-29T13:56:49;6.30;;;1.80;;
15635;SDS011;7917;50.818;6.972;2022-07-29T13:59:17;9.10;;;2.25;;
15635;SDS011;7917;50.818;6.972;2022-07-29T14:01:44;6.57;;;2.40;;
15635;SDS011;7917;50.818;6.972;2022-07-29T14:04:13;5.82;;;2.22;;
15635;SDS011;7917;50.818;6.972;2022-07-29T14:06:40;6.72;;;2.35;;
15635;SDS011;7917;50.818;6.972;2022-07-29T14:09:07;4.90;;;2.60;;
15635;SDS011;7917;50.818;6.972;2022-07-29T14:11:35;7.47;;;2.75;;
15635;SDS011;7917;50.818;6.972;2022-07-29T14:14:03;4.38;;;2.28;;
15635;SDS011;7917;50.818;6.972;2022-07-29T14:16:30;5.53;;;2.72;;
15635;SDS011;7917;50.818;6.972;2022-07-29T14:18:58;6.78;;;2.78;;
15635;SDS011;7917;50.818;6.972;2022-07-29T14:21:27;7.75;;;2.72;;
15635;SDS011;7917;50.818;6.972;2022-07-29T14:23:55;5.18;;;2.17;;
15635;SDS011;7917;50.818;6.972;2022-07-29T14:26:23;6.53;;;2.70;;
15635;SDS011;7917;50.818;6.972;2022-07-29T14:28:50;6.75;;;2.85;;
15635;SDS011;7917;50.818;6.972;2022-07-29T14:31:18;6.93;;;2.58;;
15635;SDS011;7917;50.818;6.972;2022-07-29T14:33:45;9.00;;;2.97;;
15635;SDS011;7917;50.818;6.972;2022-07-29T14:36:12;4.80;;;2.53;;
15635;SDS011;7917;50.818;6.972;2022-07-29T14:38:41;5.70;;;2.80;;
15635;SDS011;7917;50.818;6.972;2022-07-29T14:41:08;4.15;;;3.33;;
15635;SDS011;7917;50.818;6.972;2022-07-29T14:43:35;7.88;;;3.45;;
15635;SDS011;7917;50.818;6.972;2022-07-29T14:46:03;7.13;;;3.10;;
15635;SDS011;7917;50.818;6.972;2022-07-29T14:48:30;9.50;;;2.72;;
15635;SDS011;7917;50.818;6.972;2022-07-29T14:50:58;8.65;;;2.75;;
15635;SDS011;7917;50.818;6.972;2022-07-29T14:53:26;6.95;;;2.78;;
15635;SDS011;7917;50.818;6.972;2022-07-29T14:55:54;5.28;;;2.75;;
15635;SDS011;7917;50.818;6.972;2022-07-29T14:58:21;7.70;;;3.25;;
15635;SDS011;7917;50.818;6.972;2022-07-29T15:00:48;6.15;;;2.92;;
15635;SDS011;7917;50.818;6.972;2022-07-29T15:03:15;8.25;;;2.65;;
15635;SDS011;7917;50.818;6.972;2022-07-29T15:05:42;6.45;;;3.00;;
15635;SDS011;7917;50.818;6.972;2022-07-29T15:08:09;7.90;;;2.63;;
15635;SDS011;7917;50.818;6.972;2022-07-29T15:10:37;7.78;;;3.42;;
15635;SDS011;7917;50.818;6.972;2022-07-29T15:13:05;7.60;;;2.75;;
15635;SDS011;7917;50.818;6.972;2022-07-29T15:15:33;6.13;;;2.83;;
15635;SDS011;7917;50.818;6.972;2022-07-29T15:18:02;7.63;;;3.42;;
15635;SDS011;7917;50.818;6.972;2022-07-29T15:20:30;6.50;;;2.95;;
15635;SDS011;7917;50.818;6.972;2022-07-29T15:22:57;4.90;;;2.60;;
15635;SDS011;7917;50.818;6.972;2022-07-29T15:25:24;6.63;;;3.13;;
15635;SDS011;7917;50.818;6.972;2022-07-29T15:27:52;7.45;;;2.70;;
15635;SDS011;7917;50.818;6.972;2022-07-29T15:30:21;6.32;;;2.20;;
15635;SDS011;7917;50.818;6.972;2022-07-29T15:32:48;5.05;;;2.50;;
15635;SDS011;7917;50.818;6.972;2022-07-29T15:35:16;4.57;;;2.30;;
15635;SDS011;7917;50.818;6.972;2022-07-29T15:37:43;6.15;;;2.03;;